sensor_id;sensor_type;location;lat;lon;timestamp;P1;durP1;ratioP1;P2;durP2;ratioP2
74245;SDS011;62601;51.044;13.788;2023-11-18T00:01:52;4.20;;;2.70;;
74245;SDS011;62601;51.044;13.788;2023-11-18T00:04:12;3.85;;;3.10;;
74245;SDS011;62601;51.044;13.788;2023-11-18T00:06:32;3.97;;;3.05;;
74245;SDS011;62601;51.044;13.788;2023-11-18T00:08:52;5.07;;;3.20;;
74245;SDS011;62601;51.044;13.788;2023-11-18T00:11:13;3.53;;;3.05;;
74245;SDS011;62601;51.044;13.788;2023-11-18T00:13:33;3.08;;;2.85;;
74245;SDS011;62601;51.044;13.788;2023-11-18T00:15:54;4.50;;;4.10;;
74245;SDS011;62601;51.044;13.788;2023-11-18T00:18:14;3.63;;;3.25;;
74245;SDS011;62601;51.044;13.788;2023-11-18T00:20:34;3.63;;;3.33;;
74245;SDS011;62601;51.044;13.788;2023-11-18T00:22:54;3.97;;;3.30;;
74245;SDS011;62601;51.044;13.788;2023-11-18T00:25:19;3.88;;;3.15;;
74245;SDS011;62601;51.044;13.788;2023-11-18T00:27:39;3.67;;;3.15;;
74245;SDS011;62601;51.044;13.788;2023-11-18T00:29:59;2.65;;;2.45;;
74245;SDS011;62601;51.044;13.788;2023-11-18T00:32:19;3.20;;;2.90;;
74245;SDS011;62601;51.044;13.788;2023-11-18T00:34:39;3.75;;;3.03;;
74245;SDS011;62601;51.044;13.788;2023-11-18T00:37:00;3.40;;;3.10;;
74245;SDS011;62601;51.044;13.788;2023-11-18T00:39:20;3.90;;;3.50;;
74245;SDS011;62601;51.044;13.788;2023-11-18T00:41:40;3.45;;;2.65;;
74245;SDS011;62601;51.044;13.788;2023-11-18T00:44:01;2.78;;;2.30;;
74245;SDS011;62601;51.044;13.788;2023-11-18T00:46:22;2.95;;;2.58;;
74245;SDS011;62601;51.044;13.788;2023-11-18T00:48:42;2.55;;;2.30;;
74245;SDS011;62601;51.044;13.788;2023-11-18T00:51:02;2.60;;;2.13;;
74245;SDS011;62601;51.044;13.788;2023-11-18T00:53:24;2.58;;;2.30;;
74245;SDS011;62601;51.044;13.788;2023-11-18T00:55:44;3.58;;;2.92;;
74245;SDS011;62601;51.044;13.788;2023-11-18T00:58:04;3.00;;;2.47;;
74245;SDS011;62601;51.044;13.788;2023-11-18T01:00:24;2.85;;;2.55;;
74245;SDS011;62601;51.044;13.788;2023-11-18T01:02:44;3.53;;;2.85;;
74245;SDS011;62601;51.044;13.788;2023-11-18T01:05:04;3.75;;;2.85;;
74245;SDS011;62601;51.044;13.788;2023-11-18T01:07:24;3.58;;;2.90;;
74245;SDS011;62601;51.044;13.788;2023-11-18T01:09:44;3.95;;;3.20;;
74245;SDS011;62601;51.044;13.788;2023-11-18T01:12:06;4.00;;;3.25;;
74245;SDS011;62601;51.044;13.788;2023-11-18T01:14:26;4.75;;;3.60;;
74245;SDS011;62601;51.044;13.788;2023-11-18T01:16:46;4.57;;;3.47;;
74245;SDS011;62601;51.044;13.788;2023-11-18T01:19:07;4.53;;;3.53;;
74245;SDS011;62601;51.044;13.788;2023-11-18T01:21:28;3.38;;;2.88;;
74245;SDS011;62601;51.044;13.788;2023-11-18T01:23:49;3.83;;;3.35;;
74245;SDS011;62601;51.044;13.788;2023-11-18T01:26:10;4.32;;;3.92;;
74245;SDS011;62601;51.044;13.788;2023-11-18T01:28:32;2.90;;;2.60;;
74245;SDS011;62601;51.044;13.788;2023-11-18T01:30:52;3.60;;;3.30;;
74245;SDS011;62601;51.044;13.788;2023-11-18T01:33:12;4.72;;;3.25;;
74245;SDS011;62601;51.044;13.788;2023-11-18T01:35:32;3.80;;;3.10;;
74245;SDS011;62601;51.044;13.788;2023-11-18T01:37:52;4.70;;;3.53;;
74245;SDS011;62601;51.044;13.788;2023-11-18T01:40:12;3.10;;;2.80;;
74245;SDS011;62601;51.044;13.788;2023-11-18T01:42:34;3.10;;;2.72;;
74245;SDS011;62601;51.044;13.788;2023-11-18T01:44:54;3.40;;;2.42;;
74245;SDS011;62601;51.044;13.788;2023-11-18T01:47:14;2.63;;;2.35;;
74245;SDS011;62601;51.044;13.788;2023-11-18T01:49:35;4.05;;;2.80;;
74245;SDS011;62601;51.044;13.788;2023-11-18T01:51:55;7.13;;;3.05;;
74245;SDS011;62601;51.044;13.788;2023-11-18T01:54:15;2.97;;;2.67;;
74245;SDS011;62601;51.044;13.788;2023-11-18T01:56:36;2.30;;;2.10;;
74245;SDS011;62601;51.044;13.788;2023-11-18T01:58:56;2.40;;;2.10;;
74245;SDS011;62601;51.044;13.788;2023-11-18T02:01:16;3.28;;;2.30;;
74245;SDS011;62601;51.044;13.788;2023-11-18T02:03:36;3.03;;;2.50;;
74245;SDS011;62601;51.044;13.788;2023-11-18T02:05:56;4.13;;;2.55;;
74245;SDS011;62601;51.044;13.788;2023-11-18T02:08:17;3.70;;;2.50;;
74245;SDS011;62601;51.044;13.788;2023-11-18T02:10:41;2.33;;;2.05;;
74245;SDS011;62601;51.044;13.788;2023-11-18T02:13:39;3.88;;;2.67;;
74245;SDS011;62601;51.044;13.788;2023-11-18T02:15:54;2.42;;;2.22;;
74245;SDS011;62601;51.044;13.788;2023-11-18T02:18:14;2.65;;;2.28;;
74245;SDS011;62601;51.044;13.788;2023-11-18T02:20:35;3.20;;;2.70;;
74245;SDS011;62601;51.044;13.788;2023-11-18T02:22:55;3.08;;;2.60;;
74245;SDS011;62601;51.044;13.788;2023-11-18T02:25:18;3.20;;;2.40;;
74245;SDS011;62601;51.044;13.788;2023-11-18T02:27:39;2.83;;;2.45;;
74245;SDS011;62601;51.044;13.788;2023-11-18T02:30:01;3.35;;;2.67;;
74245;SDS011;62601;51.044;13.788;2023-11-18T02:32:33;2.67;;;2.47;;
74245;SDS011;62601;51.044;13.788;2023-11-18T02:37:34;4.88;;;3.60;;
74245;SDS011;62601;51.044;13.788;2023-11-18T02:39:58;2.83;;;2.53;;
74245;SDS011;62601;51.044;13.788;2023-11-18T02:42:19;4.03;;;3.00;;
74245;SDS011;62601;51.044;13.788;2023-11-18T02:44:41;3.47;;;2.53;;
74245;SDS011;62601;51.044;13.788;2023-11-18T02:47:02;3.70;;;2.70;;
74245;SDS011;62601;51.044;13.788;2023-11-18T02:49:22;3.28;;;2.53;;
74245;SDS011;62601;51.044;13.788;2023-11-18T02:51:42;3.80;;;3.00;;
74245;SDS011;62601;51.044;13.788;2023-11-18T02:54:04;3.90;;;2.70;;
74245;SDS011;62601;51.044;13.788;2023-11-18T02:56:24;3.70;;;3.15;;
74245;SDS011;62601;51.044;13.788;2023-11-18T02:58:44;3.97;;;2.90;;
74245;SDS011;62601;51.044;13.788;2023-11-18T03:01:04;3.33;;;2.97;;
74245;SDS011;62601;51.044;13.788;2023-11-18T03:03:25;3.63;;;3.00;;
74245;SDS011;62601;51.044;13.788;2023-11-18T03:05:46;3.58;;;2.95;;
74245;SDS011;62601;51.044;13.788;2023-11-18T03:08:06;4.65;;;3.30;;
74245;SDS011;62601;51.044;13.788;2023-11-18T03:10:26;5.50;;;3.70;;
74245;SDS011;62601;51.044;13.788;2023-11-18T03:12:47;6.18;;;3.45;;
74245;SDS011;62601;51.044;13.788;2023-11-18T03:15:07;5.75;;;3.50;;
74245;SDS011;62601;51.044;13.788;2023-11-18T03:17:29;4.57;;;3.15;;
74245;SDS011;62601;51.044;13.788;2023-11-18T03:19:50;4.65;;;3.15;;
74245;SDS011;62601;51.044;13.788;2023-11-18T03:22:11;3.55;;;3.25;;
74245;SDS011;62601;51.044;13.788;2023-11-18T03:24:33;5.10;;;3.90;;
74245;SDS011;62601;51.044;13.788;2023-11-18T03:26:53;5.15;;;3.40;;
74245;SDS011;62601;51.044;13.788;2023-11-18T03:29:15;4.68;;;3.60;;
74245;SDS011;62601;51.044;13.788;2023-11-18T03:31:35;7.20;;;3.80;;
74245;SDS011;62601;51.044;13.788;2023-11-18T03:33:55;3.53;;;3.10;;
74245;SDS011;62601;51.044;13.788;2023-11-18T03:36:16;4.10;;;3.08;;
74245;SDS011;62601;51.044;13.788;2023-11-18T03:38:37;4.20;;;2.85;;
74245;SDS011;62601;51.044;13.788;2023-11-18T03:40:57;4.50;;;3.10;;
74245;SDS011;62601;51.044;13.788;2023-11-18T03:43:17;6.03;;;3.65;;
74245;SDS011;62601;51.044;13.788;2023-11-18T03:45:40;4.55;;;3.45;;
74245;SDS011;62601;51.044;13.788;2023-11-18T03:48:00;3.70;;;3.25;;
74245;SDS011;62601;51.044;13.788;2023-11-18T03:50:22;5.15;;;3.80;;
74245;SDS011;62601;51.044;13.788;2023-11-18T03:52:44;5.30;;;3.50;;
74245;SDS011;62601;51.044;13.788;2023-11-18T03:55:05;3.60;;;2.85;;
74245;SDS011;62601;51.044;13.788;2023-11-18T03:57:26;4.85;;;3.28;;
74245;SDS011;62601;51.044;13.788;2023-11-18T03:59:47;5.60;;;3.95;;
74245;SDS011;62601;51.044;13.788;2023-11-18T04:02:07;3.83;;;3.05;;
74245;SDS011;62601;51.044;13.788;2023-11-18T04:04:28;4.03;;;3.20;;
74245;SDS011;62601;51.044;13.788;2023-11-18T04:06:48;4.85;;;3.55;;
74245;SDS011;62601;51.044;13.788;2023-11-18T04:09:08;5.50;;;3.45;;
74245;SDS011;62601;51.044;13.788;2023-11-18T04:11:28;4.95;;;3.92;;
74245;SDS011;62601;51.044;13.788;2023-11-18T04:13:48;4.85;;;3.83;;
74245;SDS011;62601;51.044;13.788;2023-11-18T04:16:12;5.32;;;4.00;;
74245;SDS011;62601;51.044;13.788;2023-11-18T04:18:32;4.82;;;3.58;;
74245;SDS011;62601;51.044;13.788;2023-11-18T04:20:53;4.30;;;3.33;;
74245;SDS011;62601;51.044;13.788;2023-11-18T04:23:14;5.00;;;3.60;;
74245;SDS011;62601;51.044;13.788;2023-11-18T04:25:35;4.43;;;3.50;;
74245;SDS011;62601;51.044;13.788;2023-11-18T04:27:56;5.15;;;3.85;;
74245;SDS011;62601;51.044;13.788;2023-11-18T04:30:16;5.65;;;4.15;;
74245;SDS011;62601;51.044;13.788;2023-11-18T04:32:36;4.20;;;3.40;;
74245;SDS011;62601;51.044;13.788;2023-11-18T04:34:57;5.05;;;3.55;;
74245;SDS011;62601;51.044;13.788;2023-11-18T04:37:18;5.65;;;3.17;;
74245;SDS011;62601;51.044;13.788;2023-11-18T04:39:38;5.80;;;3.28;;
74245;SDS011;62601;51.044;13.788;2023-11-18T04:41:59;4.75;;;3.55;;
74245;SDS011;62601;51.044;13.788;2023-11-18T04:44:20;3.72;;;3.00;;
74245;SDS011;62601;51.044;13.788;2023-11-18T04:46:40;4.88;;;3.80;;
74245;SDS011;62601;51.044;13.788;2023-11-18T04:49:01;4.43;;;2.83;;
74245;SDS011;62601;51.044;13.788;2023-11-18T04:51:21;7.80;;;3.83;;
74245;SDS011;62601;51.044;13.788;2023-11-18T04:53:42;5.57;;;3.90;;
74245;SDS011;62601;51.044;13.788;2023-11-18T04:56:03;5.22;;;3.90;;
74245;SDS011;62601;51.044;13.788;2023-11-18T04:58:23;4.72;;;3.40;;
74245;SDS011;62601;51.044;13.788;2023-11-18T05:00:43;6.30;;;3.17;;
74245;SDS011;62601;51.044;13.788;2023-11-18T05:03:04;4.68;;;3.50;;
74245;SDS011;62601;51.044;13.788;2023-11-18T05:05:24;4.47;;;3.42;;
74245;SDS011;62601;51.044;13.788;2023-11-18T05:07:44;3.95;;;3.50;;
74245;SDS011;62601;51.044;13.788;2023-11-18T05:10:04;5.10;;;3.17;;
74245;SDS011;62601;51.044;13.788;2023-11-18T05:12:24;5.40;;;3.40;;
74245;SDS011;62601;51.044;13.788;2023-11-18T05:14:44;5.00;;;3.70;;
74245;SDS011;62601;51.044;13.788;2023-11-18T05:17:05;5.53;;;3.88;;
74245;SDS011;62601;51.044;13.788;2023-11-18T05:19:25;5.00;;;3.30;;
74245;SDS011;62601;51.044;13.788;2023-11-18T05:21:45;4.95;;;3.45;;
74245;SDS011;62601;51.044;13.788;2023-11-18T05:24:06;5.05;;;3.88;;
74245;SDS011;62601;51.044;13.788;2023-11-18T05:26:26;6.85;;;4.10;;
74245;SDS011;62601;51.044;13.788;2023-11-18T05:28:48;4.43;;;3.80;;
74245;SDS011;62601;51.044;13.788;2023-11-18T05:31:08;5.50;;;3.83;;
74245;SDS011;62601;51.044;13.788;2023-11-18T05:33:28;5.00;;;3.92;;
74245;SDS011;62601;51.044;13.788;2023-11-18T05:35:48;7.20;;;3.50;;
74245;SDS011;62601;51.044;13.788;2023-11-18T05:38:09;4.90;;;3.63;;
74245;SDS011;62601;51.044;13.788;2023-11-18T05:40:29;8.10;;;3.50;;
74245;SDS011;62601;51.044;13.788;2023-11-18T05:42:49;4.25;;;3.30;;
74245;SDS011;62601;51.044;13.788;2023-11-18T05:45:09;4.25;;;3.47;;
74245;SDS011;62601;51.044;13.788;2023-11-18T05:47:30;5.32;;;3.70;;
74245;SDS011;62601;51.044;13.788;2023-11-18T05:49:52;4.82;;;3.20;;
74245;SDS011;62601;51.044;13.788;2023-11-18T05:52:12;5.05;;;3.80;;
74245;SDS011;62601;51.044;13.788;2023-11-18T05:54:33;4.70;;;3.50;;
74245;SDS011;62601;51.044;13.788;2023-11-18T05:56:57;5.88;;;3.13;;
74245;SDS011;62601;51.044;13.788;2023-11-18T05:59:17;5.53;;;3.30;;
74245;SDS011;62601;51.044;13.788;2023-11-18T06:01:37;4.60;;;3.50;;
74245;SDS011;62601;51.044;13.788;2023-11-18T06:03:57;5.40;;;3.97;;
74245;SDS011;62601;51.044;13.788;2023-11-18T06:06:17;4.60;;;3.40;;
74245;SDS011;62601;51.044;13.788;2023-11-18T06:08:38;4.90;;;4.07;;
74245;SDS011;62601;51.044;13.788;2023-11-18T06:10:58;3.70;;;3.15;;
74245;SDS011;62601;51.044;13.788;2023-11-18T06:13:22;5.40;;;4.00;;
74245;SDS011;62601;51.044;13.788;2023-11-18T06:15:42;7.60;;;5.00;;
74245;SDS011;62601;51.044;13.788;2023-11-18T06:18:03;7.95;;;4.63;;
74245;SDS011;62601;51.044;13.788;2023-11-18T06:20:24;5.10;;;4.05;;
74245;SDS011;62601;51.044;13.788;2023-11-18T06:22:44;4.82;;;3.85;;
74245;SDS011;62601;51.044;13.788;2023-11-18T06:25:05;4.55;;;3.17;;
74245;SDS011;62601;51.044;13.788;2023-11-18T06:27:25;5.65;;;4.30;;
74245;SDS011;62601;51.044;13.788;2023-11-18T06:29:46;6.35;;;4.10;;
74245;SDS011;62601;51.044;13.788;2023-11-18T06:32:06;5.85;;;4.50;;
74245;SDS011;62601;51.044;13.788;2023-11-18T06:34:26;7.20;;;4.20;;
74245;SDS011;62601;51.044;13.788;2023-11-18T06:36:46;6.13;;;4.63;;
74245;SDS011;62601;51.044;13.788;2023-11-18T06:39:06;5.22;;;3.47;;
74245;SDS011;62601;51.044;13.788;2023-11-18T06:41:26;5.05;;;4.13;;
74245;SDS011;62601;51.044;13.788;2023-11-18T06:43:46;8.75;;;5.45;;
74245;SDS011;62601;51.044;13.788;2023-11-18T06:46:11;6.30;;;4.00;;
74245;SDS011;62601;51.044;13.788;2023-11-18T06:48:31;8.30;;;3.90;;
74245;SDS011;62601;51.044;13.788;2023-11-18T06:50:51;5.68;;;3.83;;
74245;SDS011;62601;51.044;13.788;2023-11-18T06:53:11;6.15;;;4.68;;
74245;SDS011;62601;51.044;13.788;2023-11-18T06:55:31;5.00;;;3.70;;
74245;SDS011;62601;51.044;13.788;2023-11-18T06:57:51;4.85;;;4.05;;
74245;SDS011;62601;51.044;13.788;2023-11-18T07:00:12;6.82;;;5.28;;
74245;SDS011;62601;51.044;13.788;2023-11-18T07:02:32;5.55;;;4.28;;
74245;SDS011;62601;51.044;13.788;2023-11-18T07:04:52;7.20;;;4.43;;
74245;SDS011;62601;51.044;13.788;2023-11-18T07:07:12;6.07;;;4.35;;
74245;SDS011;62601;51.044;13.788;2023-11-18T07:09:32;6.43;;;4.15;;
74245;SDS011;62601;51.044;13.788;2023-11-18T07:11:52;6.30;;;3.80;;
74245;SDS011;62601;51.044;13.788;2023-11-18T07:14:13;7.07;;;4.57;;
74245;SDS011;62601;51.044;13.788;2023-11-18T07:16:34;5.03;;;3.78;;
74245;SDS011;62601;51.044;13.788;2023-11-18T07:18:55;5.38;;;4.35;;
74245;SDS011;62601;51.044;13.788;2023-11-18T07:21:15;6.03;;;3.60;;
74245;SDS011;62601;51.044;13.788;2023-11-18T07:23:36;6.05;;;4.15;;
74245;SDS011;62601;51.044;13.788;2023-11-18T07:25:56;4.70;;;4.00;;
74245;SDS011;62601;51.044;13.788;2023-11-18T07:28:17;5.28;;;4.05;;
74245;SDS011;62601;51.044;13.788;2023-11-18T07:30:39;6.15;;;3.83;;
74245;SDS011;62601;51.044;13.788;2023-11-18T07:32:59;7.40;;;4.28;;
74245;SDS011;62601;51.044;13.788;2023-11-18T07:35:19;5.70;;;4.57;;
74245;SDS011;62601;51.044;13.788;2023-11-18T07:37:41;6.65;;;4.43;;
74245;SDS011;62601;51.044;13.788;2023-11-18T07:40:01;5.45;;;4.18;;
74245;SDS011;62601;51.044;13.788;2023-11-18T07:42:21;5.13;;;3.58;;
74245;SDS011;62601;51.044;13.788;2023-11-18T07:44:42;5.82;;;4.03;;
74245;SDS011;62601;51.044;13.788;2023-11-18T07:47:02;5.82;;;3.83;;
74245;SDS011;62601;51.044;13.788;2023-11-18T07:49:24;4.47;;;3.72;;
74245;SDS011;62601;51.044;13.788;2023-11-18T07:51:45;5.07;;;3.90;;
74245;SDS011;62601;51.044;13.788;2023-11-18T07:54:05;5.53;;;4.32;;
74245;SDS011;62601;51.044;13.788;2023-11-18T07:56:26;8.48;;;4.50;;
74245;SDS011;62601;51.044;13.788;2023-11-18T07:58:46;6.03;;;4.38;;
74245;SDS011;62601;51.044;13.788;2023-11-18T08:01:06;6.45;;;4.75;;
74245;SDS011;62601;51.044;13.788;2023-11-18T08:03:26;6.97;;;4.60;;
74245;SDS011;62601;51.044;13.788;2023-11-18T08:05:46;16.30;;;10.57;;
74245;SDS011;62601;51.044;13.788;2023-11-18T08:08:06;8.75;;;6.65;;
74245;SDS011;62601;51.044;13.788;2023-11-18T08:10:27;6.38;;;4.88;;
74245;SDS011;62601;51.044;13.788;2023-11-18T08:12:47;6.00;;;4.07;;
74245;SDS011;62601;51.044;13.788;2023-11-18T08:15:07;5.75;;;4.03;;
74245;SDS011;62601;51.044;13.788;2023-11-18T08:17:28;5.22;;;4.32;;
74245;SDS011;62601;51.044;13.788;2023-11-18T08:19:48;7.70;;;5.65;;
74245;SDS011;62601;51.044;13.788;2023-11-18T08:22:09;7.30;;;5.32;;
74245;SDS011;62601;51.044;13.788;2023-11-18T08:24:30;6.40;;;4.80;;
74245;SDS011;62601;51.044;13.788;2023-11-18T08:26:51;5.57;;;3.97;;
74245;SDS011;62601;51.044;13.788;2023-11-18T08:29:13;6.88;;;4.97;;
74245;SDS011;62601;51.044;13.788;2023-11-18T08:31:34;7.68;;;4.75;;
74245;SDS011;62601;51.044;13.788;2023-11-18T08:33:56;8.10;;;4.85;;
74245;SDS011;62601;51.044;13.788;2023-11-18T08:36:17;6.50;;;4.55;;
74245;SDS011;62601;51.044;13.788;2023-11-18T08:38:38;6.20;;;4.22;;
74245;SDS011;62601;51.044;13.788;2023-11-18T08:40:59;6.30;;;5.00;;
74245;SDS011;62601;51.044;13.788;2023-11-18T08:43:19;5.38;;;4.30;;
74245;SDS011;62601;51.044;13.788;2023-11-18T08:45:39;5.40;;;4.18;;
74245;SDS011;62601;51.044;13.788;2023-11-18T08:48:00;7.18;;;4.40;;
74245;SDS011;62601;51.044;13.788;2023-11-18T08:50:21;5.88;;;4.53;;
74245;SDS011;62601;51.044;13.788;2023-11-18T08:52:43;6.72;;;3.83;;
74245;SDS011;62601;51.044;13.788;2023-11-18T08:55:05;6.03;;;4.50;;
74245;SDS011;62601;51.044;13.788;2023-11-18T08:57:26;5.20;;;4.10;;
74245;SDS011;62601;51.044;13.788;2023-11-18T08:59:46;5.18;;;4.07;;
74245;SDS011;62601;51.044;13.788;2023-11-18T09:02:06;6.57;;;4.63;;
74245;SDS011;62601;51.044;13.788;2023-11-18T09:04:26;10.75;;;7.43;;
74245;SDS011;62601;51.044;13.788;2023-11-18T09:06:47;8.43;;;6.05;;
74245;SDS011;62601;51.044;13.788;2023-11-18T09:09:07;5.18;;;3.97;;
74245;SDS011;62601;51.044;13.788;2023-11-18T09:11:27;5.40;;;4.10;;
74245;SDS011;62601;51.044;13.788;2023-11-18T09:13:47;6.20;;;4.65;;
74245;SDS011;62601;51.044;13.788;2023-11-18T09:16:08;4.97;;;3.90;;
74245;SDS011;62601;51.044;13.788;2023-11-18T09:18:28;5.22;;;4.05;;
74245;SDS011;62601;51.044;13.788;2023-11-18T09:20:48;5.18;;;4.55;;
74245;SDS011;62601;51.044;13.788;2023-11-18T09:23:09;6.25;;;4.35;;
74245;SDS011;62601;51.044;13.788;2023-11-18T09:25:30;6.50;;;4.97;;
74245;SDS011;62601;51.044;13.788;2023-11-18T09:27:51;5.30;;;4.53;;
74245;SDS011;62601;51.044;13.788;2023-11-18T09:30:12;8.20;;;4.75;;
74245;SDS011;62601;51.044;13.788;2023-11-18T09:32:32;5.72;;;4.40;;
74245;SDS011;62601;51.044;13.788;2023-11-18T09:34:52;5.60;;;4.40;;
74245;SDS011;62601;51.044;13.788;2023-11-18T09:37:13;5.80;;;4.43;;
74245;SDS011;62601;51.044;13.788;2023-11-18T09:39:33;6.75;;;4.95;;
74245;SDS011;62601;51.044;13.788;2023-11-18T09:41:55;6.72;;;4.25;;
74245;SDS011;62601;51.044;13.788;2023-11-18T09:44:15;6.05;;;4.95;;
74245;SDS011;62601;51.044;13.788;2023-11-18T09:46:36;9.52;;;4.80;;
74245;SDS011;62601;51.044;13.788;2023-11-18T09:51:37;7.35;;;5.20;;
74245;SDS011;62601;51.044;13.788;2023-11-18T09:54:04;7.93;;;4.38;;
74245;SDS011;62601;51.044;13.788;2023-11-18T09:58:46;7.40;;;6.05;;
74245;SDS011;62601;51.044;13.788;2023-11-18T10:01:08;6.28;;;4.97;;
74245;SDS011;62601;51.044;13.788;2023-11-18T10:03:30;11.98;;;5.22;;
74245;SDS011;62601;51.044;13.788;2023-11-18T10:05:50;6.78;;;4.65;;
74245;SDS011;62601;51.044;13.788;2023-11-18T10:08:12;5.93;;;5.30;;
74245;SDS011;62601;51.044;13.788;2023-11-18T10:10:32;5.72;;;5.18;;
74245;SDS011;62601;51.044;13.788;2023-11-18T10:12:52;5.88;;;4.95;;
74245;SDS011;62601;51.044;13.788;2023-11-18T10:15:16;6.95;;;4.68;;
74245;SDS011;62601;51.044;13.788;2023-11-18T10:17:45;5.68;;;4.68;;
74245;SDS011;62601;51.044;13.788;2023-11-18T10:20:05;6.60;;;5.45;;
74245;SDS011;62601;51.044;13.788;2023-11-18T10:22:26;7.45;;;4.93;;
74245;SDS011;62601;51.044;13.788;2023-11-18T10:24:48;6.30;;;4.70;;
74245;SDS011;62601;51.044;13.788;2023-11-18T10:27:09;6.90;;;5.03;;
74245;SDS011;62601;51.044;13.788;2023-11-18T10:29:31;5.15;;;4.00;;
74245;SDS011;62601;51.044;13.788;2023-11-18T10:32:01;5.50;;;4.20;;
74245;SDS011;62601;51.044;13.788;2023-11-18T10:34:22;4.55;;;4.05;;
74245;SDS011;62601;51.044;13.788;2023-11-18T10:36:42;7.15;;;5.45;;
74245;SDS011;62601;51.044;13.788;2023-11-18T10:39:18;5.65;;;4.38;;
74245;SDS011;62601;51.044;13.788;2023-11-18T10:41:42;6.40;;;4.30;;
74245;SDS011;62601;51.044;13.788;2023-11-18T10:44:06;4.95;;;4.03;;
74245;SDS011;62601;51.044;13.788;2023-11-18T10:46:28;6.15;;;4.10;;
74245;SDS011;62601;51.044;13.788;2023-11-18T10:48:48;5.90;;;4.78;;
74245;SDS011;62601;51.044;13.788;2023-11-18T10:51:12;4.38;;;3.97;;
74245;SDS011;62601;51.044;13.788;2023-11-18T10:53:32;5.78;;;4.47;;
74245;SDS011;62601;51.044;13.788;2023-11-18T10:55:55;5.60;;;5.00;;
74245;SDS011;62601;51.044;13.788;2023-11-18T10:58:16;5.45;;;4.22;;
74245;SDS011;62601;51.044;13.788;2023-11-18T11:00:46;3.60;;;3.30;;
74245;SDS011;62601;51.044;13.788;2023-11-18T11:03:07;4.88;;;3.90;;
74245;SDS011;62601;51.044;13.788;2023-11-18T11:05:28;5.60;;;4.03;;
74245;SDS011;62601;51.044;13.788;2023-11-18T11:07:48;5.68;;;4.00;;
74245;SDS011;62601;51.044;13.788;2023-11-18T11:10:08;5.28;;;3.58;;
74245;SDS011;62601;51.044;13.788;2023-11-18T11:12:29;4.18;;;3.78;;
74245;SDS011;62601;51.044;13.788;2023-11-18T11:15:00;4.70;;;3.50;;
74245;SDS011;62601;51.044;13.788;2023-11-18T11:17:21;3.88;;;3.47;;
74245;SDS011;62601;51.044;13.788;2023-11-18T11:19:46;5.85;;;4.57;;
74245;SDS011;62601;51.044;13.788;2023-11-18T11:22:10;4.50;;;3.10;;
74245;SDS011;62601;51.044;13.788;2023-11-18T11:24:51;4.50;;;3.53;;
74245;SDS011;62601;51.044;13.788;2023-11-18T11:27:23;4.35;;;3.42;;
74245;SDS011;62601;51.044;13.788;2023-11-18T11:29:51;2.90;;;2.50;;
74245;SDS011;62601;51.044;13.788;2023-11-18T11:32:18;6.25;;;4.32;;
74245;SDS011;62601;51.044;13.788;2023-11-18T11:34:53;7.18;;;5.82;;
74245;SDS011;62601;51.044;13.788;2023-11-18T11:37:18;3.33;;;2.97;;
74245;SDS011;62601;51.044;13.788;2023-11-18T11:39:39;2.20;;;1.95;;
74245;SDS011;62601;51.044;13.788;2023-11-18T11:41:59;7.45;;;4.70;;
74245;SDS011;62601;51.044;13.788;2023-11-18T11:44:22;10.23;;;7.30;;
74245;SDS011;62601;51.044;13.788;2023-11-18T11:46:42;2.10;;;1.90;;
74245;SDS011;62601;51.044;13.788;2023-11-18T11:49:04;1.60;;;1.50;;
74245;SDS011;62601;51.044;13.788;2023-11-18T11:51:28;1.40;;;1.30;;
74245;SDS011;62601;51.044;13.788;2023-11-18T11:53:53;1.40;;;1.08;;
74245;SDS011;62601;51.044;13.788;2023-11-18T11:56:15;1.02;;;0.93;;
74245;SDS011;62601;51.044;13.788;2023-11-18T11:58:35;1.00;;;1.00;;
74245;SDS011;62601;51.044;13.788;2023-11-18T12:00:55;1.00;;;1.00;;
74245;SDS011;62601;51.044;13.788;2023-11-18T12:03:16;1.48;;;0.95;;
74245;SDS011;62601;51.044;13.788;2023-11-18T12:05:36;1.40;;;0.98;;
74245;SDS011;62601;51.044;13.788;2023-11-18T12:07:56;1.20;;;1.10;;
74245;SDS011;62601;51.044;13.788;2023-11-18T12:10:18;1.40;;;1.30;;
74245;SDS011;62601;51.044;13.788;2023-11-18T12:12:39;1.60;;;1.50;;
74245;SDS011;62601;51.044;13.788;2023-11-18T12:14:59;1.52;;;1.42;;
74245;SDS011;62601;51.044;13.788;2023-11-18T12:17:19;6.80;;;5.80;;
74245;SDS011;62601;51.044;13.788;2023-11-18T12:19:40;2.80;;;2.00;;
74245;SDS011;62601;51.044;13.788;2023-11-18T12:22:01;1.70;;;1.60;;
74245;SDS011;62601;51.044;13.788;2023-11-18T12:24:22;2.47;;;1.90;;
74245;SDS011;62601;51.044;13.788;2023-11-18T12:26:42;2.47;;;1.55;;
74245;SDS011;62601;51.044;13.788;2023-11-18T12:29:02;1.90;;;1.67;;
74245;SDS011;62601;51.044;13.788;2023-11-18T12:31:38;5.47;;;2.08;;
74245;SDS011;62601;51.044;13.788;2023-11-18T12:41:38;2.95;;;2.20;;
74245;SDS011;62601;51.044;13.788;2023-11-18T12:46:52;3.95;;;2.30;;
74245;SDS011;62601;51.044;13.788;2023-11-18T12:49:14;2.40;;;2.20;;
74245;SDS011;62601;51.044;13.788;2023-11-18T12:51:34;2.30;;;2.10;;
74245;SDS011;62601;51.044;13.788;2023-11-18T12:53:55;2.70;;;2.10;;
74245;SDS011;62601;51.044;13.788;2023-11-18T12:56:21;3.03;;;2.30;;
74245;SDS011;62601;51.044;13.788;2023-11-18T12:58:42;2.33;;;2.13;;
74245;SDS011;62601;51.044;13.788;2023-11-18T13:01:02;2.45;;;2.25;;
74245;SDS011;62601;51.044;13.788;2023-11-18T13:03:22;2.30;;;2.10;;
74245;SDS011;62601;51.044;13.788;2023-11-18T13:05:44;3.47;;;2.22;;
74245;SDS011;62601;51.044;13.788;2023-11-18T13:08:04;2.95;;;2.50;;
74245;SDS011;62601;51.044;13.788;2023-11-18T13:10:25;3.35;;;2.45;;
74245;SDS011;62601;51.044;13.788;2023-11-18T13:12:46;4.88;;;2.60;;
74245;SDS011;62601;51.044;13.788;2023-11-18T13:15:06;3.83;;;2.70;;
74245;SDS011;62601;51.044;13.788;2023-11-18T13:17:26;3.90;;;2.45;;
74245;SDS011;62601;51.044;13.788;2023-11-18T13:19:46;2.55;;;2.35;;
74245;SDS011;62601;51.044;13.788;2023-11-18T13:22:10;3.00;;;2.70;;
74245;SDS011;62601;51.044;13.788;2023-11-18T13:24:32;3.88;;;3.42;;
74245;SDS011;62601;51.044;13.788;2023-11-18T13:26:53;3.45;;;3.00;;
74245;SDS011;62601;51.044;13.788;2023-11-18T13:29:15;3.90;;;3.17;;
74245;SDS011;62601;51.044;13.788;2023-11-18T13:31:38;3.10;;;2.80;;
74245;SDS011;62601;51.044;13.788;2023-11-18T13:33:58;3.20;;;2.92;;
74245;SDS011;62601;51.044;13.788;2023-11-18T13:36:20;3.35;;;3.05;;
74245;SDS011;62601;51.044;13.788;2023-11-18T13:38:40;3.47;;;2.75;;
74245;SDS011;62601;51.044;13.788;2023-11-18T13:41:02;3.63;;;3.08;;
74245;SDS011;62601;51.044;13.788;2023-11-18T13:43:22;3.65;;;3.00;;
74245;SDS011;62601;51.044;13.788;2023-11-18T13:45:42;3.53;;;3.10;;
74245;SDS011;62601;51.044;13.788;2023-11-18T13:48:02;3.58;;;3.00;;
74245;SDS011;62601;51.044;13.788;2023-11-18T13:50:23;3.65;;;3.15;;
74245;SDS011;62601;51.044;13.788;2023-11-18T13:52:43;3.83;;;3.47;;
74245;SDS011;62601;51.044;13.788;2023-11-18T13:55:03;7.00;;;3.20;;
74245;SDS011;62601;51.044;13.788;2023-11-18T13:57:23;5.38;;;3.60;;
74245;SDS011;62601;51.044;13.788;2023-11-18T13:59:43;4.95;;;3.65;;
74245;SDS011;62601;51.044;13.788;2023-11-18T14:02:04;4.30;;;3.75;;
74245;SDS011;62601;51.044;13.788;2023-11-18T14:04:27;4.47;;;3.40;;
74245;SDS011;62601;51.044;13.788;2023-11-18T14:06:50;4.72;;;3.70;;
74245;SDS011;62601;51.044;13.788;2023-11-18T14:09:12;4.22;;;3.83;;
74245;SDS011;62601;51.044;13.788;2023-11-18T14:11:32;3.28;;;2.97;;
74245;SDS011;62601;51.044;13.788;2023-11-18T14:13:52;3.72;;;3.38;;
74245;SDS011;62601;51.044;13.788;2023-11-18T14:16:12;4.38;;;3.65;;